Terminal Aerodrome Forecast
Issued by NWS

Home | Current Version | Previous Version | Text Only | Print | Product List | Glossary On
Versions: 1 2 3 4 5 6 7 8 9 10 11 12 13 14
000
FTUS43 KGLD 190500
TAFMCK
TAF
KMCK 190520Z 1906/2006 17015G25KT P6SM BKN200
     FM191100 18010KT P6SM BKN150
     FM191600 06012KT P6SM SCT040 BKN120
     FM192100 04012KT P6SM BKN040 PROB30 1921/2003 -TSRA BKN040CB
     FM200300 03010KT P6SM -TSRA SCT040CB OVC100=

USA.gov is the U.S. government's official web portal to all federal, state and local government web resources and services.